Time,TemperatureF,DewpointF,PressureIn,WindDirection,WindDirectionDegrees,WindSpeedMPH,WindSpeedGustMPH,Humidity,HourlyPrecipIn,Conditions,Clouds,dailyrainin,SoftwareType,DateUTC
2013-07-15 00:02:00,73.4,69.3,30.23,NW,315,11.0,11.0,87,0.00,,,0.00,meteohub,2013-07-15 04:02:00,
2013-07-15 00:03:00,73.4,69.3,30.23,NW,315,11.0,11.0,87,0.00,,,0.00,meteohub,2013-07-15 04:03:00,
2013-07-15 00:04:00,73.6,69.4,30.23,NW,315,9.0,10.0,87,0.00,,,0.00,meteohub,2013-07-15 04:04:00,
2013-07-15 00:05:00,73.6,69.4,30.23,NW,315,9.0,11.0,87,0.00,,,0.00,meteohub,2013-07-15 04:05:00,
2013-07-15 00:08:00,73.6,69.4,30.23,NW,315,9.0,11.0,87,0.00,,,0.00,meteohub,2013-07-15 04:08:00,
2013-07-15 00:13:00,73.6,69.4,30.23,NW,315,9.0,11.0,87,0.00,,,0.00,meteohub,2013-07-15 04:13:00,
2013-07-15 00:18:00,73.6,69.4,30.23,NNW,338,7.0,11.0,87,0.00,,,0.00,meteohub,2013-07-15 04:18:00,
2013-07-15 00:23:00,73.4,69.3,30.22,NW,315,9.0,9.0,87,0.00,,,0.00,meteohub,2013-07-15 04:23:00,
2013-07-15 00:28:00,73.4,69.6,30.22,NW,315,10.0,10.0,88,0.00,,,0.00,meteohub,2013-07-15 04:28:00,
2013-07-15 00:33:00,73.4,69.6,30.22,NW,315,12.0,12.0,88,0.00,,,0.00,meteohub,2013-07-15 04:33:00,
2013-07-15 00:38:00,73.2,69.4,30.22,NW,315,9.0,10.0,88,0.00,,,0.00,meteohub,2013-07-15 04:38:00,
2013-07-15 00:43:00,73.2,69.4,30.22,NNW,338,7.0,12.0,88,0.00,,,0.00,meteohub,2013-07-15 04:43:00,
2013-07-15 00:48:00,73.6,69.8,30.22,NW,315,9.0,12.0,88,0.00,,,0.00,meteohub,2013-07-15 04:48:00,
2013-07-15 00:53:00,73.6,69.8,30.22,NW,315,9.0,10.0,88,0.00,,,0.00,meteohub,2013-07-15 04:53:00,
2013-07-15 00:59:00,73.8,70.0,30.22,NNW,338,10.0,10.0,88,0.00,,,0.00,meteohub,2013-07-15 04:59:00,
2013-07-15 01:04:00,74.1,70.7,30.21,NW,315,12.0,12.0,89,0.00,,,0.00,meteohub,2013-07-15 05:04:00,
2013-07-15 01:09:00,74.5,71.1,30.21,NNW,338,7.0,15.0,89,0.00,,,0.00,meteohub,2013-07-15 05:09:00,
2013-07-15 01:14:00,74.7,70.9,30.21,NW,315,11.0,15.0,88,0.00,,,0.00,meteohub,2013-07-15 05:14:00,
2013-07-15 01:19:00,74.7,70.9,30.21,North,0,8.0,15.0,88,0.00,,,0.00,meteohub,2013-07-15 05:19:00,
2013-07-15 01:24:00,74.3,70.5,30.21,NNE,23,8.0,11.0,88,0.00,,,0.00,meteohub,2013-07-15 05:24:00,
2013-07-15 01:29:00,74.3,70.5,30.21,NNW,338,8.0,11.0,88,0.00,,,0.00,meteohub,2013-07-15 05:29:00,
2013-07-15 01:34:00,74.5,71.1,30.21,NW,315,12.0,12.0,89,0.00,,,0.00,meteohub,2013-07-15 05:34:00,
2013-07-15 01:39:00,74.5,70.7,30.21,NW,315,13.0,13.0,88,0.00,,,0.00,meteohub,2013-07-15 05:39:00,
2013-07-15 01:44:00,74.3,70.5,30.21,NW,315,12.0,13.0,88,0.00,,,0.00,meteohub,2013-07-15 05:44:00,
2013-07-15 01:49:00,74.3,70.5,30.21,NNW,338,10.0,13.0,88,0.00,,,0.00,meteohub,2013-07-15 05:49:00,
2013-07-15 01:55:00,74.3,70.5,30.21,NW,315,9.0,13.0,88,0.00,,,0.00,meteohub,2013-07-15 05:55:00,
2013-07-15 02:00:00,74.3,70.9,30.21,NW,315,6.0,13.0,89,0.00,,,0.00,meteohub,2013-07-15 06:00:00,
2013-07-15 02:05:00,74.3,70.9,30.21,NW,315,11.0,12.0,89,0.00,,,0.00,meteohub,2013-07-15 06:05:00,
2013-07-15 02:10:00,74.5,71.1,30.21,NW,315,9.0,11.0,89,0.00,,,0.00,meteohub,2013-07-15 06:10:00,
2013-07-15 02:15:00,74.7,71.2,30.21,NW,315,7.0,11.0,89,0.00,,,0.00,meteohub,2013-07-15 06:15:00,
2013-07-15 02:20:00,74.5,71.1,30.21,NW,315,8.0,11.0,89,0.00,,,0.00,meteohub,2013-07-15 06:20:00,
2013-07-15 02:25:00,74.5,71.1,30.20,NW,315,9.0,9.0,89,0.00,,,0.00,meteohub,2013-07-15 06:25:00,
2013-07-15 02:30:00,74.3,70.5,30.20,WNW,293,6.0,9.0,88,0.00,,,0.00,meteohub,2013-07-15 06:30:00,
2013-07-15 02:35:00,74.3,70.5,30.20,NW,315,7.0,10.0,88,0.00,,,0.00,meteohub,2013-07-15 06:35:00,
2013-07-15 02:40:00,74.1,70.3,30.20,NW,315,7.0,10.0,88,0.00,,,0.00,meteohub,2013-07-15 06:40:00,
2013-07-15 02:46:00,74.1,70.3,30.20,NW,315,6.0,9.0,88,0.00,,,0.00,meteohub,2013-07-15 06:46:00,
2013-07-15 02:51:00,73.9,70.2,30.20,NW,315,6.0,7.0,88,0.00,,,0.00,meteohub,2013-07-15 06:51:00,
2013-07-15 02:56:00,73.9,70.2,30.20,NW,315,7.0,7.0,88,0.00,,,0.00,meteohub,2013-07-15 06:56:00,
2013-07-15 03:01:00,73.9,70.2,30.20,NW,315,6.0,7.0,88,0.00,,,0.00,meteohub,2013-07-15 07:01:00,
2013-07-15 03:06:00,73.8,70.3,30.20,NW,315,5.0,8.0,89,0.00,,,0.00,meteohub,2013-07-15 07:06:00,
2013-07-15 03:11:00,73.8,70.3,30.20,NW,315,5.0,8.0,89,0.00,,,0.00,meteohub,2013-07-15 07:11:00,
2013-07-15 03:16:00,73.9,70.5,30.20,WNW,293,6.0,8.0,89,0.00,,,0.00,meteohub,2013-07-15 07:16:00,
2013-07-15 03:21:00,73.9,70.5,30.20,NW,315,7.0,7.0,89,0.00,,,0.00,meteohub,2013-07-15 07:21:00,
2013-07-15 03:26:00,73.8,70.3,30.20,NW,315,6.0,7.0,89,0.00,,,0.00,meteohub,2013-07-15 07:26:00,
2013-07-15 03:31:00,73.6,70.2,30.20,NW,315,5.0,7.0,89,0.00,,,0.00,meteohub,2013-07-15 07:31:00,
2013-07-15 03:36:00,73.4,70.0,30.20,NW,315,7.0,8.0,89,0.00,,,0.00,meteohub,2013-07-15 07:36:00,
2013-07-15 03:41:00,73.4,70.0,30.20,NW,315,6.0,8.0,89,0.00,,,0.00,meteohub,2013-07-15 07:41:00,
2013-07-15 03:47:00,73.6,70.2,30.19,NW,315,6.0,8.0,89,0.00,,,0.00,meteohub,2013-07-15 07:47:00,
2013-07-15 03:52:00,73.4,70.0,30.19,NNW,338,5.0,7.0,89,0.00,,,0.00,meteohub,2013-07-15 07:52:00,
2013-07-15 03:57:00,73.6,70.2,30.19,NW,315,6.0,7.0,89,0.00,,,0.00,meteohub,2013-07-15 07:57:00,
2013-07-15 04:02:00,73.4,70.0,30.19,WNW,293,5.0,8.0,89,0.00,,,0.00,meteohub,2013-07-15 08:02:00,
2013-07-15 04:07:00,73.2,69.8,30.20,NW,315,9.0,9.0,89,0.00,,,0.00,meteohub,2013-07-15 08:07:00,
2013-07-15 04:12:00,73.2,69.8,30.20,NW,315,10.0,10.0,89,0.00,,,0.00,meteohub,2013-07-15 08:12:00,
2013-07-15 04:17:00,73.2,69.8,30.20,NW,315,8.0,10.0,89,0.00,,,0.00,meteohub,2013-07-15 08:17:00,
2013-07-15 04:22:00,73.2,69.8,30.20,NW,315,7.0,10.0,89,0.00,,,0.00,meteohub,2013-07-15 08:22:00,
2013-07-15 04:27:00,73.0,69.6,30.20,NW,315,9.0,10.0,89,0.00,,,0.00,meteohub,2013-07-15 08:27:00,
2013-07-15 04:32:00,73.0,69.6,30.20,NW,315,7.0,9.0,89,0.00,,,0.00,meteohub,2013-07-15 08:32:00,
2013-07-15 04:37:00,73.2,69.8,30.20,NW,315,10.0,10.0,89,0.00,,,0.00,meteohub,2013-07-15 08:37:00,
2013-07-15 04:42:00,73.2,69.8,30.20,NW,315,8.0,10.0,89,0.00,,,0.00,meteohub,2013-07-15 08:42:00,
2013-07-15 04:47:00,73.2,69.8,30.20,NW,315,7.0,10.0,89,0.00,,,0.00,meteohub,2013-07-15 08:47:00,
2013-07-15 04:52:00,73.2,69.8,30.20,NW,315,6.0,10.0,89,0.00,,,0.00,meteohub,2013-07-15 08:52:00,
2013-07-15 04:57:00,73.2,69.8,30.20,NW,315,9.0,10.0,89,0.00,,,0.00,meteohub,2013-07-15 08:57:00,
2013-07-15 05:02:00,73.2,69.8,30.20,NW,315,8.0,10.0,89,0.00,,,0.00,meteohub,2013-07-15 09:02:00,
2013-07-15 05:07:00,73.0,69.6,30.20,NNW,338,8.0,9.0,89,0.00,,,0.00,meteohub,2013-07-15 09:07:00,
2013-07-15 05:12:00,73.2,69.8,30.20,NW,315,9.0,9.0,89,0.00,,,0.00,meteohub,2013-07-15 09:12:00,
2013-07-15 05:17:00,73.0,69.6,30.20,NW,315,9.0,9.0,89,0.00,,,0.00,meteohub,2013-07-15 09:17:00,
2013-07-15 05:22:00,73.0,69.6,30.20,NW,315,7.0,9.0,89,0.00,,,0.00,meteohub,2013-07-15 09:22:00,
2013-07-15 05:27:00,73.0,70.0,30.19,NNW,338,6.0,9.0,90,0.00,,,0.00,meteohub,2013-07-15 09:27:00,
2013-07-15 05:32:00,73.0,70.0,30.19,NNW,338,6.0,9.0,90,0.00,,,0.00,meteohub,2013-07-15 09:32:00,
2013-07-15 05:37:00,72.9,69.8,30.19,NNW,338,6.0,8.0,90,0.00,,,0.00,meteohub,2013-07-15 09:37:00,
2013-07-15 05:42:00,72.7,69.6,30.19,NNW,338,6.0,8.0,90,0.00,,,0.00,meteohub,2013-07-15 09:42:00,
2013-07-15 05:47:00,72.9,69.8,30.20,NNW,338,7.0,8.0,90,0.00,,,0.00,meteohub,2013-07-15 09:47:00,
2013-07-15 05:52:00,72.5,69.4,30.20,NW,315,7.0,8.0,90,0.00,,,0.00,meteohub,2013-07-15 09:52:00,
2013-07-15 05:57:00,72.5,69.4,30.20,NW,315,5.0,8.0,90,0.00,,,0.00,meteohub,2013-07-15 09:57:00,
2013-07-15 06:02:00,72.3,69.3,30.20,NNW,338,8.0,8.0,90,0.00,,,0.00,meteohub,2013-07-15 10:02:00,
2013-07-15 06:07:00,72.3,69.3,30.20,NNW,338,9.0,9.0,90,0.00,,,0.00,meteohub,2013-07-15 10:07:00,
2013-07-15 06:12:00,72.3,69.3,30.20,NNW,338,9.0,9.0,90,0.00,,,0.00,meteohub,2013-07-15 10:12:00,
2013-07-15 06:17:00,72.3,69.3,30.20,WNW,293,7.0,9.0,90,0.00,,,0.00,meteohub,2013-07-15 10:17:00,
2013-07-15 06:22:00,72.5,69.4,30.20,NW,315,7.0,9.0,90,0.00,,,0.00,meteohub,2013-07-15 10:22:00,
2013-07-15 06:27:00,72.7,69.6,30.20,NW,315,6.0,9.0,90,0.00,,,0.00,meteohub,2013-07-15 10:27:00,
2013-07-15 06:32:00,72.7,69.6,30.20,NW,315,10.0,10.0,90,0.00,,,0.00,meteohub,2013-07-15 10:32:00,
2013-07-15 06:37:00,72.7,69.6,30.20,NW,315,5.0,11.0,90,0.00,,,0.00,meteohub,2013-07-15 10:37:00,
2013-07-15 06:42:00,72.9,69.8,30.20,NW,315,8.0,11.0,90,0.00,,,0.00,meteohub,2013-07-15 10:42:00,
2013-07-15 06:47:00,72.9,69.8,30.20,NW,315,6.0,11.0,90,0.00,,,0.00,meteohub,2013-07-15 10:47:00,
2013-07-15 06:52:00,72.9,69.8,30.20,NNW,338,5.0,8.0,90,0.00,,,0.00,meteohub,2013-07-15 10:52:00,
2013-07-15 06:57:00,73.4,70.3,30.20,NW,315,5.0,8.0,90,0.00,,,0.00,meteohub,2013-07-15 10:57:00,
2013-07-15 07:02:00,73.6,70.5,30.20,NW,315,9.0,9.0,90,0.00,,,0.00,meteohub,2013-07-15 11:02:00,
2013-07-15 07:07:00,73.6,70.5,30.20,NW,315,8.0,9.0,90,0.00,,,0.00,meteohub,2013-07-15 11:07:00,
2013-07-15 07:12:00,73.6,70.5,30.20,NW,315,4.0,9.0,90,0.00,,,0.00,meteohub,2013-07-15 11:12:00,
2013-07-15 07:17:00,73.6,70.5,30.20,WNW,293,8.0,9.0,90,0.00,,,0.00,meteohub,2013-07-15 11:17:00,
2013-07-15 07:22:00,73.6,70.5,30.20,NW,315,9.0,9.0,90,0.00,,,0.00,meteohub,2013-07-15 11:22:00,
2013-07-15 07:27:00,73.9,70.5,30.21,NW,315,8.0,10.0,89,0.00,,,0.00,meteohub,2013-07-15 11:27:00,
2013-07-15 07:32:00,74.3,70.9,30.21,NW,315,10.0,10.0,89,0.00,,,0.00,meteohub,2013-07-15 11:32:00,
2013-07-15 07:37:00,74.7,71.2,30.21,NW,315,8.0,10.0,89,0.00,,,0.00,meteohub,2013-07-15 11:37:00,
2013-07-15 07:42:00,74.7,71.2,30.21,NW,315,10.0,11.0,89,0.00,,,0.00,meteohub,2013-07-15 11:42:00,
2013-07-15 07:47:00,75.0,71.6,30.21,NW,315,7.0,11.0,89,0.00,,,0.00,meteohub,2013-07-15 11:47:00,
2013-07-15 07:52:00,75.4,72.0,30.21,NW,315,6.0,11.0,89,0.00,,,0.00,meteohub,2013-07-15 11:52:00,
2013-07-15 07:57:00,75.7,72.0,30.21,NW,315,8.0,11.0,88,0.00,,,0.00,meteohub,2013-07-15 11:57:00,
2013-07-15 08:02:00,76.1,72.3,30.21,NW,315,7.0,11.0,88,0.00,,,0.00,meteohub,2013-07-15 12:02:00,
2013-07-15 08:08:00,76.5,72.3,30.21,NW,315,7.0,9.0,87,0.00,,,0.00,meteohub,2013-07-15 12:08:00,
2013-07-15 08:13:00,76.8,72.7,30.21,NNW,338,7.0,9.0,87,0.00,,,0.00,meteohub,2013-07-15 12:13:00,
2013-07-15 08:18:00,77.2,73.0,30.21,WNW,293,7.0,9.0,87,0.00,,,0.00,meteohub,2013-07-15 12:18:00,
2013-07-15 08:23:00,76.8,72.3,30.21,NW,315,6.0,8.0,86,0.00,,,0.00,meteohub,2013-07-15 12:23:00,
2013-07-15 08:28:00,77.0,72.5,30.21,NW,315,6.0,7.0,86,0.00,,,0.00,meteohub,2013-07-15 12:28:00,
2013-07-15 08:33:00,76.8,72.3,30.21,West,270,5.0,7.0,86,0.00,,,0.00,meteohub,2013-07-15 12:33:00,
2013-07-15 08:38:00,77.2,72.7,30.21,NW,315,5.0,10.0,86,0.00,,,0.00,meteohub,2013-07-15 12:38:00,
2013-07-15 08:43:00,77.0,72.1,30.21,NW,315,6.0,10.0,85,0.00,,,0.00,meteohub,2013-07-15 12:43:00,
2013-07-15 08:48:00,77.0,72.1,30.21,WNW,293,8.0,8.0,85,0.00,,,0.00,meteohub,2013-07-15 12:48:00,
2013-07-15 08:54:00,76.6,71.8,30.21,NW,315,6.0,8.0,85,0.00,,,0.00,meteohub,2013-07-15 12:54:00,
2013-07-15 08:59:00,76.8,72.3,30.21,NNW,338,7.0,8.0,86,0.00,,,0.00,meteohub,2013-07-15 12:59:00,
2013-07-15 09:04:00,76.8,72.3,30.20,NNW,338,8.0,8.0,86,0.00,,,0.00,meteohub,2013-07-15 13:04:00,
2013-07-15 09:09:00,77.0,72.5,30.20,NW,315,8.0,8.0,86,0.00,,,0.00,meteohub,2013-07-15 13:09:00,
2013-07-15 09:14:00,77.2,72.7,30.20,NW,315,4.0,8.0,86,0.00,,,0.00,meteohub,2013-07-15 13:14:00,
2013-07-15 09:19:00,77.2,72.7,30.20,NW,315,6.0,8.0,86,0.00,,,0.00,meteohub,2013-07-15 13:19:00,
2013-07-15 09:25:00,77.4,72.9,30.20,NNW,338,5.0,8.0,86,0.00,,,0.00,meteohub,2013-07-15 13:25:00,
2013-07-15 09:30:00,77.4,72.9,30.20,NNW,338,4.0,8.0,86,0.00,,,0.00,meteohub,2013-07-15 13:30:00,
2013-07-15 09:35:00,77.9,73.4,30.20,NNW,338,5.0,8.0,86,0.00,,,0.00,meteohub,2013-07-15 13:35:00,
2013-07-15 09:41:00,77.9,73.4,30.20,NNW,338,7.0,7.0,86,0.00,,,0.00,meteohub,2013-07-15 13:41:00,
2013-07-15 09:46:00,78.3,73.4,30.20,NW,315,9.0,9.0,85,0.00,,,0.00,meteohub,2013-07-15 13:46:00,
2013-07-15 09:51:00,78.1,73.2,30.20,NW,315,6.0,8.0,85,0.00,,,0.00,meteohub,2013-07-15 13:51:00,
2013-07-15 09:56:00,78.1,73.2,30.20,NNW,338,3.0,9.0,85,0.00,,,0.00,meteohub,2013-07-15 13:56:00,
2013-07-15 10:01:00,78.6,73.8,30.20,NW,315,8.0,9.0,85,0.00,,,0.00,meteohub,2013-07-15 14:01:00,
2013-07-15 10:07:00,78.6,73.4,30.19,NW,315,8.0,8.0,84,0.00,,,0.00,meteohub,2013-07-15 14:07:00,
2013-07-15 10:12:00,78.6,73.8,30.19,NNW,338,8.0,9.0,85,0.00,,,0.00,meteohub,2013-07-15 14:12:00,
2013-07-15 10:17:00,78.6,73.4,30.19,NW,315,9.0,9.0,84,0.00,,,0.00,meteohub,2013-07-15 14:17:00,
2013-07-15 10:22:00,78.8,73.6,30.19,NW,315,9.0,9.0,84,0.00,,,0.00,meteohub,2013-07-15 14:22:00,
2013-07-15 10:27:00,79.0,73.8,30.19,NW,315,8.0,9.0,84,0.00,,,0.00,meteohub,2013-07-15 14:27:00,
2013-07-15 10:32:00,79.3,74.1,30.19,NW,315,4.0,9.0,84,0.00,,,0.00,meteohub,2013-07-15 14:32:00,
2013-07-15 10:37:00,79.3,74.1,30.19,NW,315,9.0,9.0,84,0.00,,,0.00,meteohub,2013-07-15 14:37:00,
2013-07-15 10:42:00,79.3,73.8,30.19,NW,315,10.0,10.0,83,0.00,,,0.00,meteohub,2013-07-15 14:42:00,
2013-07-15 10:47:00,79.2,73.6,30.19,WNW,293,11.0,13.0,83,0.00,,,0.00,meteohub,2013-07-15 14:47:00,
2013-07-15 10:52:00,79.3,73.4,30.19,WNW,293,11.0,13.0,82,0.00,,,0.00,meteohub,2013-07-15 14:52:00,
2013-07-15 10:58:00,79.2,73.2,30.19,NW,315,12.0,13.0,82,0.00,,,0.00,meteohub,2013-07-15 14:58:00,
2013-07-15 11:03:00,79.3,73.4,30.19,WNW,293,14.0,14.0,82,0.00,,,0.00,meteohub,2013-07-15 15:03:00,
2013-07-15 11:08:00,79.3,73.4,30.19,NW,315,12.0,14.0,82,0.00,,,0.00,meteohub,2013-07-15 15:08:00,
2013-07-15 11:16:00,79.2,73.2,30.19,NNW,338,11.0,14.0,82,0.00,,,0.00,meteohub,2013-07-15 15:16:00,
2013-07-15 11:21:00,79.2,73.2,30.19,WNW,293,13.0,14.0,82,0.00,,,0.00,meteohub,2013-07-15 15:21:00,
2013-07-15 11:27:00,79.2,73.2,30.18,NNW,338,11.0,16.0,82,0.00,,,0.00,meteohub,2013-07-15 15:27:00,
2013-07-15 11:32:00,79.2,73.2,30.18,NW,315,12.0,16.0,82,0.00,,,0.00,meteohub,2013-07-15 15:32:00,
2013-07-15 11:37:00,79.3,73.4,30.18,West,270,13.0,16.0,82,0.00,,,0.00,meteohub,2013-07-15 15:37:00,
2013-07-15 11:42:00,79.3,73.4,30.18,NW,315,13.0,15.0,82,0.00,,,0.00,meteohub,2013-07-15 15:42:00,
2013-07-15 11:48:00,79.3,73.4,30.18,NW,315,8.0,16.0,82,0.00,,,0.00,meteohub,2013-07-15 15:48:00,
2013-07-15 11:53:00,79.5,73.6,30.18,NW,315,14.0,16.0,82,0.00,,,0.00,meteohub,2013-07-15 15:53:00,
2013-07-15 11:58:00,79.5,73.2,30.18,NNW,338,10.0,16.0,81,0.00,,,0.00,meteohub,2013-07-15 15:58:00,
2013-07-15 12:03:00,79.5,73.6,30.18,North,0,13.0,14.0,82,0.00,,,0.00,meteohub,2013-07-15 16:03:00,
2013-07-15 12:09:00,79.5,73.6,30.18,WNW,293,13.0,14.0,82,0.00,,,0.00,meteohub,2013-07-15 16:09:00,
2013-07-15 12:14:00,79.9,73.6,30.18,NW,315,14.0,14.0,81,0.00,,,0.00,meteohub,2013-07-15 16:14:00,
2013-07-15 12:19:00,79.9,73.6,30.18,NW,315,18.0,18.0,81,0.00,,,0.00,meteohub,2013-07-15 16:19:00,
2013-07-15 12:24:00,79.9,73.6,30.18,NNW,338,13.0,18.0,81,0.00,,,0.00,meteohub,2013-07-15 16:24:00,
2013-07-15 12:30:00,80.1,73.8,30.18,NW,315,13.0,18.0,81,0.00,,,0.00,meteohub,2013-07-15 16:30:00,
2013-07-15 12:35:00,80.4,74.1,30.18,NW,315,9.0,18.0,81,0.00,,,0.00,meteohub,2013-07-15 16:35:00,
2013-07-15 12:40:00,80.8,74.5,30.18,NW,315,10.0,16.0,81,0.00,,,0.00,meteohub,2013-07-15 16:40:00,
2013-07-15 12:45:00,81.3,74.8,30.17,NW,315,10.0,16.0,81,0.00,,,0.00,meteohub,2013-07-15 16:45:00,
2013-07-15 12:50:00,81.5,74.3,30.17,NW,315,7.0,10.0,79,0.00,,,0.00,meteohub,2013-07-15 16:50:00,
2013-07-15 12:55:00,81.7,74.1,30.17,NW,315,17.0,17.0,78,0.00,,,0.00,meteohub,2013-07-15 16:55:00,
2013-07-15 13:00:00,81.7,74.1,30.17,NW,315,11.0,17.0,78,0.00,,,0.00,meteohub,2013-07-15 17:00:00,
2013-07-15 13:06:00,81.7,74.1,30.17,NW,315,11.0,17.0,78,0.00,,,0.00,meteohub,2013-07-15 17:06:00,
2013-07-15 13:11:00,82.0,74.1,30.17,NW,315,12.0,17.0,77,0.00,,,0.00,meteohub,2013-07-15 17:11:00,
2013-07-15 13:17:00,82.2,74.7,30.17,NW,315,12.0,15.0,78,0.00,,,0.00,meteohub,2013-07-15 17:17:00,
2013-07-15 13:23:00,82.6,75.4,30.17,NNW,338,10.0,15.0,79,0.00,,,0.00,meteohub,2013-07-15 17:23:00,
2013-07-15 13:28:00,83.3,75.4,30.17,NW,315,9.0,12.0,77,0.00,,,0.00,meteohub,2013-07-15 17:28:00,
2013-07-15 13:33:00,83.8,75.9,30.17,NW,315,7.0,12.0,77,0.00,,,0.00,meteohub,2013-07-15 17:33:00,
2013-07-15 13:38:00,83.8,75.4,30.17,NNE,23,8.0,10.0,76,0.00,,,0.00,meteohub,2013-07-15 17:38:00,
2013-07-15 13:43:00,84.2,75.4,30.17,NW,315,7.0,11.0,75,0.00,,,0.00,meteohub,2013-07-15 17:43:00,
2013-07-15 13:49:00,84.9,76.1,30.17,NW,315,8.0,11.0,75,0.00,,,0.00,meteohub,2013-07-15 17:49:00,
2013-07-15 13:54:00,84.9,75.7,30.17,NW,315,5.0,11.0,74,0.00,,,0.00,meteohub,2013-07-15 17:54:00,
2013-07-15 13:59:00,85.1,75.4,30.17,NNW,338,7.0,9.0,73,0.00,,,0.00,meteohub,2013-07-15 17:59:00,
2013-07-15 14:05:00,85.3,75.2,30.17,NW,315,8.0,10.0,72,0.00,,,0.00,meteohub,2013-07-15 18:05:00,
2013-07-15 14:10:00,85.8,76.1,30.17,WNW,293,6.0,10.0,73,0.00,,,0.00,meteohub,2013-07-15 18:10:00,
2013-07-15 14:16:00,86.0,75.6,30.17,NW,315,9.0,10.0,71,0.00,,,0.00,meteohub,2013-07-15 18:16:00,
2013-07-15 14:21:00,86.5,76.5,30.17,NW,315,10.0,10.0,72,0.00,,,0.00,meteohub,2013-07-15 18:21:00,
2013-07-15 14:27:00,86.5,75.6,30.16,NW,315,8.0,10.0,70,0.00,,,0.00,meteohub,2013-07-15 18:27:00,
2013-07-15 14:32:00,86.7,75.7,30.16,WNW,293,13.0,13.0,70,0.00,,,0.00,meteohub,2013-07-15 18:32:00,
2013-07-15 14:37:00,86.7,75.4,30.16,NW,315,5.0,10.0,69,0.00,,,0.00,meteohub,2013-07-15 18:37:00,
2013-07-15 14:43:00,86.2,74.8,30.15,NW,315,9.0,13.0,69,0.00,,,0.00,meteohub,2013-07-15 18:43:00,
2013-07-15 14:48:00,86.2,75.2,30.15,WNW,293,8.0,13.0,70,0.00,,,0.00,meteohub,2013-07-15 18:48:00,
2013-07-15 14:53:00,86.2,74.8,30.15,NW,315,15.0,15.0,69,0.00,,,0.00,meteohub,2013-07-15 18:53:00,
2013-07-15 14:58:00,86.2,74.8,30.15,NW,315,13.0,13.0,69,0.00,,,0.00,meteohub,2013-07-15 18:58:00,
2013-07-15 15:04:00,86.0,75.0,30.15,NW,315,11.0,15.0,70,0.00,,,0.00,meteohub,2013-07-15 19:04:00,
2013-07-15 15:09:00,86.0,75.0,30.15,NW,315,13.0,17.0,70,0.00,,,0.00,meteohub,2013-07-15 19:09:00,
2013-07-15 15:14:00,86.0,74.7,30.15,NW,315,17.0,17.0,69,0.00,,,0.00,meteohub,2013-07-15 19:14:00,
2013-07-15 15:19:00,86.2,75.2,30.15,West,270,15.0,17.0,70,0.00,,,0.00,meteohub,2013-07-15 19:19:00,
2013-07-15 15:25:00,86.0,74.7,30.14,WNW,293,8.0,17.0,69,0.00,,,0.00,meteohub,2013-07-15 19:25:00,
2013-07-15 15:30:00,86.5,75.6,30.14,NW,315,9.0,17.0,70,0.00,,,0.00,meteohub,2013-07-15 19:30:00,
2013-07-15 15:35:00,86.5,75.6,30.14,WNW,293,9.0,14.0,70,0.00,,,0.00,meteohub,2013-07-15 19:35:00,
2013-07-15 15:41:00,86.7,75.4,30.14,NW,315,13.0,18.0,69,0.00,,,0.00,meteohub,2013-07-15 19:41:00,
2013-07-15 15:47:00,87.3,75.9,30.15,WNW,293,9.0,18.0,69,0.00,,,0.00,meteohub,2013-07-15 19:47:00,
2013-07-15 15:52:00,87.1,75.2,30.15,WNW,293,17.0,18.0,68,0.00,,,0.00,meteohub,2013-07-15 19:52:00,
2013-07-15 15:57:00,87.8,75.4,30.15,NNW,338,14.0,17.0,67,0.00,,,0.00,meteohub,2013-07-15 19:57:00,
2013-07-15 16:02:00,87.8,75.4,30.15,NW,315,12.0,17.0,67,0.00,,,0.00,meteohub,2013-07-15 20:02:00,
2013-07-15 16:07:00,87.6,74.8,30.14,NW,315,14.0,17.0,66,0.00,,,0.00,meteohub,2013-07-15 20:07:00,
2013-07-15 16:12:00,87.8,75.0,30.14,NW,315,11.0,16.0,66,0.00,,,0.00,meteohub,2013-07-15 20:12:00,
2013-07-15 16:17:00,88.3,75.9,30.14,NW,315,7.0,16.0,67,0.00,,,0.00,meteohub,2013-07-15 20:17:00,
2013-07-15 16:22:00,87.6,74.3,30.14,NW,315,8.0,14.0,65,0.00,,,0.00,meteohub,2013-07-15 20:22:00,
2013-07-15 16:27:00,88.0,75.6,30.14,NW,315,8.0,12.0,67,0.00,,,0.00,meteohub,2013-07-15 20:27:00,
2013-07-15 16:33:00,89.1,75.7,30.14,NNW,338,6.0,12.0,65,0.00,,,0.00,meteohub,2013-07-15 20:33:00,
2013-07-15 16:38:00,89.4,76.6,30.14,NNW,338,10.0,11.0,66,0.00,,,0.00,meteohub,2013-07-15 20:38:00,
2013-07-15 16:43:00,89.6,75.7,30.13,NW,315,9.0,13.0,64,0.00,,,0.00,meteohub,2013-07-15 20:43:00,
2013-07-15 16:48:00,89.4,76.1,30.13,NW,315,11.0,13.0,65,0.00,,,0.00,meteohub,2013-07-15 20:48:00,
2013-07-15 16:54:00,89.1,75.7,30.13,NW,315,5.0,13.0,65,0.00,,,0.00,meteohub,2013-07-15 20:54:00,
2013-07-15 16:59:00,89.4,75.6,30.13,NNW,338,9.0,11.0,64,0.00,,,0.00,meteohub,2013-07-15 20:59:00,
2013-07-15 17:04:00,89.1,74.8,30.13,NW,315,10.0,11.0,63,0.00,,,0.00,meteohub,2013-07-15 21:04:00,
2013-07-15 17:09:00,89.1,75.7,30.13,North,0,7.0,9.0,65,0.00,,,0.00,meteohub,2013-07-15 21:09:00,
2013-07-15 17:15:00,89.8,75.9,30.13,North,0,8.0,10.0,64,0.00,,,0.00,meteohub,2013-07-15 21:15:00,
2013-07-15 17:20:00,89.8,75.6,30.13,NW,315,7.0,9.0,63,0.00,,,0.00,meteohub,2013-07-15 21:20:00,
2013-07-15 17:25:00,89.8,75.6,30.12,NW,315,6.0,10.0,63,0.00,,,0.00,meteohub,2013-07-15 21:25:00,
2013-07-15 17:31:00,90.1,75.9,30.12,NNE,23,3.0,10.0,63,0.00,,,0.00,meteohub,2013-07-15 21:31:00,
2013-07-15 17:37:00,90.1,75.4,30.12,NNW,338,6.0,10.0,62,0.00,,,0.00,meteohub,2013-07-15 21:37:00,
2013-07-15 17:42:00,89.8,75.0,30.12,North,0,6.0,7.0,62,0.00,,,0.00,meteohub,2013-07-15 21:42:00,
2013-07-15 17:48:00,90.0,75.7,30.12,NW,315,4.0,7.0,63,0.00,,,0.00,meteohub,2013-07-15 21:48:00,
2013-07-15 17:53:00,90.1,75.4,30.12,NW,315,8.0,8.0,62,0.00,,,0.00,meteohub,2013-07-15 21:53:00,
2013-07-15 17:59:00,90.1,75.4,30.12,NNW,338,5.0,6.0,62,0.00,,,0.00,meteohub,2013-07-15 21:59:00,
2013-07-15 18:05:00,90.1,75.4,30.12,NNW,338,4.0,8.0,62,0.00,,,0.00,meteohub,2013-07-15 22:05:00,
2013-07-15 18:10:00,90.1,75.4,30.12,NNW,338,6.0,8.0,62,0.00,,,0.00,meteohub,2013-07-15 22:10:00,
2013-07-15 18:15:00,90.0,75.2,30.12,NNW,338,4.0,6.0,62,0.00,,,0.00,meteohub,2013-07-15 22:15:00,
2013-07-15 18:20:00,90.0,75.2,30.12,North,0,5.0,6.0,62,0.00,,,0.00,meteohub,2013-07-15 22:20:00,
2013-07-15 18:25:00,90.1,75.4,30.13,NNE,23,4.0,6.0,62,0.00,,,0.00,meteohub,2013-07-15 22:25:00,
2013-07-15 18:30:00,90.3,75.6,30.13,NNW,338,2.0,6.0,62,0.00,,,0.00,meteohub,2013-07-15 22:30:00,
2013-07-15 18:35:00,90.3,75.6,30.13,NNW,338,4.0,5.0,62,0.00,,,0.00,meteohub,2013-07-15 22:35:00,
2013-07-15 18:41:00,90.5,76.1,30.13,NNW,338,3.0,5.0,63,0.00,,,0.00,meteohub,2013-07-15 22:41:00,
2013-07-15 18:46:00,90.3,75.6,30.12,NNE,23,7.0,7.0,62,0.00,,,0.00,meteohub,2013-07-15 22:46:00,
2013-07-15 18:51:00,88.3,73.6,30.12,NNW,338,4.0,7.0,62,0.00,,,0.00,meteohub,2013-07-15 22:51:00,
2013-07-15 18:56:00,87.3,73.6,30.12,NW,315,2.0,7.0,64,0.00,,,0.00,meteohub,2013-07-15 22:56:00,
2013-07-15 19:02:00,86.5,72.9,30.12,NW,315,4.0,7.0,64,0.00,,,0.00,meteohub,2013-07-15 23:02:00,
2013-07-15 19:07:00,85.6,72.5,30.13,NW,315,4.0,4.0,65,0.00,,,0.00,meteohub,2013-07-15 23:07:00,
2013-07-15 19:12:00,85.3,72.7,30.13,NNW,338,4.0,4.0,66,0.00,,,0.00,meteohub,2013-07-15 23:12:00,
2013-07-15 19:17:00,84.6,72.0,30.13,NW,315,5.0,6.0,66,0.00,,,0.00,meteohub,2013-07-15 23:17:00,
2013-07-15 19:22:00,84.4,71.8,30.13,NW,315,5.0,6.0,66,0.00,,,0.00,meteohub,2013-07-15 23:22:00,
2013-07-15 19:27:00,84.4,72.1,30.12,NW,315,6.0,6.0,67,0.00,,,0.00,meteohub,2013-07-15 23:27:00,
2013-07-15 19:32:00,84.2,72.0,30.12,NNW,338,5.0,6.0,67,0.00,,,0.00,meteohub,2013-07-15 23:32:00,
2013-07-15 19:37:00,83.7,72.0,30.12,NW,315,5.0,6.0,68,0.00,,,0.00,meteohub,2013-07-15 23:37:00,
2013-07-15 19:42:00,82.9,71.8,30.12,NW,315,6.0,6.0,69,0.00,,,0.00,meteohub,2013-07-15 23:42:00,
2013-07-15 19:48:00,82.4,71.6,30.12,NW,315,7.0,7.0,70,0.00,,,0.00,meteohub,2013-07-15 23:48:00,
2013-07-15 19:53:00,81.9,71.1,30.12,NW,315,7.0,7.0,70,0.00,,,0.00,meteohub,2013-07-15 23:53:00,
2013-07-15 19:59:00,81.5,71.2,30.12,NW,315,6.0,8.0,71,0.00,,,0.00,meteohub,2013-07-15 23:59:00,
2013-07-15 20:04:00,81.5,71.2,30.12,NNW,338,8.0,9.0,71,0.00,,,0.00,meteohub,2013-07-16 00:04:00,
2013-07-15 20:10:00,81.5,71.6,30.12,NNW,338,6.0,9.0,72,0.00,,,0.00,meteohub,2013-07-16 00:10:00,
2013-07-15 20:15:00,81.5,72.0,30.12,NW,315,7.0,8.0,73,0.00,,,0.00,meteohub,2013-07-16 00:15:00,
2013-07-15 20:20:00,81.1,71.6,30.12,NW,315,8.0,8.0,73,0.00,,,0.00,meteohub,2013-07-16 00:20:00,
2013-07-15 20:25:00,80.8,71.8,30.13,NW,315,7.0,8.0,74,0.00,,,0.00,meteohub,2013-07-16 00:25:00,
2013-07-15 20:31:00,80.2,71.2,30.13,NW,315,7.0,8.0,74,0.00,,,0.00,meteohub,2013-07-16 00:31:00,
2013-07-15 20:37:00,79.9,71.2,30.13,NW,315,6.0,8.0,75,0.00,,,0.00,meteohub,2013-07-16 00:37:00,
2013-07-15 20:43:00,79.5,71.2,30.12,NW,315,7.0,7.0,76,0.00,,,0.00,meteohub,2013-07-16 00:43:00,
2013-07-15 20:49:00,79.3,71.1,30.12,NW,315,6.0,7.0,76,0.00,,,0.00,meteohub,2013-07-16 00:49:00,
2013-07-15 20:54:00,79.2,70.9,30.12,NW,315,6.0,7.0,76,0.00,,,0.00,meteohub,2013-07-16 00:54:00,
2013-07-15 20:59:00,78.8,71.1,30.12,West,270,8.0,8.0,77,0.00,,,0.00,meteohub,2013-07-16 00:59:00,
2013-07-15 21:05:00,78.6,71.2,30.13,NW,315,7.0,9.0,78,0.00,,,0.00,meteohub,2013-07-16 01:05:00,
2013-07-15 21:10:00,78.4,71.1,30.13,NW,315,8.0,9.0,78,0.00,,,0.00,meteohub,2013-07-16 01:10:00,
2013-07-15 21:15:00,78.4,71.1,30.13,WNW,293,8.0,9.0,78,0.00,,,0.00,meteohub,2013-07-16 01:15:00,
2013-07-15 21:20:00,78.1,70.7,30.13,NW,315,9.0,9.0,78,0.00,,,0.00,meteohub,2013-07-16 01:20:00,
2013-07-15 21:25:00,78.1,70.7,30.13,NW,315,6.0,9.0,78,0.00,,,0.00,meteohub,2013-07-16 01:25:00,
2013-07-15 21:31:00,77.7,70.7,30.13,NW,315,7.0,9.0,79,0.00,,,0.00,meteohub,2013-07-16 01:31:00,
2013-07-15 21:36:00,77.5,70.5,30.13,NW,315,5.0,9.0,79,0.00,,,0.00,meteohub,2013-07-16 01:36:00,
2013-07-15 21:41:00,77.5,70.9,30.13,NW,315,5.0,7.0,80,0.00,,,0.00,meteohub,2013-07-16 01:41:00,
2013-07-15 21:46:00,77.4,70.7,30.14,NNW,338,5.0,7.0,80,0.00,,,0.00,meteohub,2013-07-16 01:46:00,
2013-07-15 21:52:00,77.4,70.7,30.14,NW,315,4.0,6.0,80,0.00,,,0.00,meteohub,2013-07-16 01:52:00,
2013-07-15 21:57:00,77.4,71.1,30.14,NW,315,4.0,6.0,81,0.00,,,0.00,meteohub,2013-07-16 01:57:00,
2013-07-15 22:02:00,77.4,71.1,30.14,NNW,338,4.0,6.0,81,0.00,,,0.00,meteohub,2013-07-16 02:02:00,
2013-07-15 22:07:00,77.2,70.9,30.13,NNW,338,3.0,4.0,81,0.00,,,0.00,meteohub,2013-07-16 02:07:00,
2013-07-15 22:12:00,77.2,70.9,30.13,NNW,338,4.0,4.0,81,0.00,,,0.00,meteohub,2013-07-16 02:12:00,
2013-07-15 22:17:00,76.8,70.9,30.13,North,0,5.0,5.0,82,0.00,,,0.00,meteohub,2013-07-16 02:17:00,
2013-07-15 22:22:00,76.6,70.7,30.13,NNW,338,5.0,5.0,82,0.00,,,0.00,meteohub,2013-07-16 02:22:00,
2013-07-15 22:27:00,76.6,71.1,30.13,NNW,338,6.0,6.0,83,0.00,,,0.00,meteohub,2013-07-16 02:27:00,
2013-07-15 22:32:00,77.2,71.6,30.13,NNW,338,6.0,6.0,83,0.00,,,0.00,meteohub,2013-07-16 02:32:00,
2013-07-15 22:38:00,77.4,71.8,30.13,North,0,5.0,6.0,83,0.00,,,0.00,meteohub,2013-07-16 02:38:00,
2013-07-15 22:43:00,77.4,71.8,30.13,NNW,338,5.0,6.0,83,0.00,,,0.00,meteohub,2013-07-16 02:43:00,
2013-07-15 22:48:00,77.4,71.8,30.13,NW,315,5.0,6.0,83,0.00,,,0.00,meteohub,2013-07-16 02:48:00,
2013-07-15 22:54:00,77.4,71.8,30.13,NNW,338,4.0,6.0,83,0.00,,,0.00,meteohub,2013-07-16 02:54:00,
2013-07-15 22:59:00,77.4,71.8,30.13,NW,315,4.0,6.0,83,0.00,,,0.00,meteohub,2013-07-16 02:59:00,
2013-07-15 23:04:00,77.5,72.0,30.14,NW,315,4.0,6.0,83,0.00,,,0.00,meteohub,2013-07-16 03:04:00,
2013-07-15 23:10:00,77.4,71.8,30.14,NNW,338,6.0,6.0,83,0.00,,,0.00,meteohub,2013-07-16 03:10:00,
2013-07-15 23:15:00,77.5,72.0,30.14,NW,315,4.0,5.0,83,0.00,,,0.00,meteohub,2013-07-16 03:15:00,
2013-07-15 23:20:00,77.4,71.8,30.14,NNW,338,5.0,6.0,83,0.00,,,0.00,meteohub,2013-07-16 03:20:00,
2013-07-15 23:25:00,77.4,71.8,30.14,NNW,338,4.0,6.0,83,0.00,,,0.00,meteohub,2013-07-16 03:25:00,
2013-07-15 23:30:00,77.4,71.8,30.14,NW,315,6.0,6.0,83,0.00,,,0.00,meteohub,2013-07-16 03:30:00,
2013-07-15 23:35:00,77.4,71.8,30.14,NNW,338,5.0,6.0,83,0.00,,,0.00,meteohub,2013-07-16 03:35:00,
2013-07-15 23:40:00,77.4,71.8,30.14,NNW,338,4.0,6.0,83,0.00,,,0.00,meteohub,2013-07-16 03:40:00,
2013-07-15 23:46:00,77.4,71.8,30.13,NNW,338,5.0,6.0,83,0.00,,,0.00,meteohub,2013-07-16 03:46:00,
2013-07-15 23:51:00,77.2,71.6,30.13,NNE,23,4.0,6.0,83,0.00,,,0.00,meteohub,2013-07-16 03:51:00,
2013-07-15 23:56:00,77.0,71.8,30.13,North,0,3.0,5.0,84,0.00,,,0.00,meteohub,2013-07-16 03:56:00,